Time;durP1;ratioP1;P1;durP2;ratioP2;P2;SDS_P1;SDS_P2;PMS_P1;PMS_P2;Temp;Humidity;BMP_temperature;BMP_pressure;BME280_temperature;BME280_humidity;BME280_pressure;Samples;Min_cycle;Max_cycle;Signal;HPM_P1;HPM_P2
2022/04/12 00:02:51;;;;;;;11.90;8.55;;;;;;;4.29;100.00;100679.78;6000178;29;20594;-92
2022/04/12 00:05:53;;;;;;;12.63;8.80;;;;;;;4.27;100.00;100678.19;5996707;29;20740;-92
2022/04/12 00:08:55;;;;;;;13.52;8.68;;;;;;;4.25;100.00;100675.72;5997009;29;20048;-92
2022/04/12 00:11:58;;;;;;;12.27;8.98;;;;;;;4.21;100.00;100679.34;6006043;29;20653;-92
2022/04/12 00:15:02;;;;;;;12.35;8.55;;;;;;;4.17;100.00;100667.56;6011145;29;20045;-92
2022/04/12 00:21:24;;;;;;;16.38;9.35;;;;;;;4.10;100.00;100661.94;6015522;29;20135;-93
2022/04/12 00:24:26;;;;;;;12.18;8.93;;;;;;;4.08;100.00;100663.75;6025699;29;20072;-92
2022/04/12 00:27:29;;;;;;;11.98;8.98;;;;;;;4.04;100.00;100662.25;6018201;29;20502;-92
2022/04/12 00:30:30;;;;;;;13.43;9.13;;;;;;;4.01;100.00;100657.28;6012054;29;20559;-93
2022/04/12 00:33:32;;;;;;;13.80;9.68;;;;;;;3.97;100.00;100653.19;6010816;29;20055;-92
2022/04/12 00:36:35;;;;;;;13.55;9.38;;;;;;;3.95;100.00;100651.63;6023801;29;20037;-92
2022/04/12 00:39:37;;;;;;;13.02;9.00;;;;;;;3.91;100.00;100653.53;6012246;29;20064;-91
2022/04/12 00:42:39;;;;;;;11.00;8.50;;;;;;;3.85;100.00;100646.97;6015924;29;20052;-93
2022/04/12 00:45:46;;;;;;;13.63;9.05;;;;;;;3.81;100.00;100640.34;6014535;29;20128;-96
2022/04/12 00:48:48;;;;;;;14.05;8.85;;;;;;;3.75;100.00;100639.78;6004421;29;20649;-92
2022/04/12 00:51:51;;;;;;;14.57;8.88;;;;;;;3.67;100.00;100633.31;6016387;29;20057;-92
2022/04/12 00:54:53;;;;;;;13.52;9.00;;;;;;;3.63;100.00;100638.69;6015249;29;20297;-92
2022/04/12 00:57:56;;;;;;;17.38;10.07;;;;;;;3.59;100.00;100630.31;6018112;29;20556;-92
2022/04/12 01:00:58;;;;;;;13.85;9.77;;;;;;;3.56;100.00;100627.09;6008182;29;20561;-93
2022/04/12 01:04:00;;;;;;;15.77;10.75;;;;;;;3.51;100.00;100618.78;6017764;29;20038;-92
2022/04/12 01:07:02;;;;;;;14.20;9.23;;;;;;;3.42;100.00;100615.75;6017414;29;20597;-92
2022/04/12 01:10:05;;;;;;;13.63;9.80;;;;;;;3.37;100.00;100620.25;6015273;29;20049;-92
2022/04/12 01:13:07;;;;;;;16.98;10.13;;;;;;;3.33;100.00;100621.34;6012477;29;20041;-92
2022/04/12 01:16:09;;;;;;;14.25;10.00;;;;;;;3.28;100.00;100617.31;6010478;29;20042;-93
2022/04/12 01:19:11;;;;;;;14.95;10.25;;;;;;;3.27;100.00;100619.03;6010051;29;20073;-91
2022/04/12 01:22:21;;;;;;;14.95;10.52;;;;;;;3.22;100.00;100621.81;6010377;29;20038;-92
2022/04/12 01:25:23;;;;;;;18.13;10.57;;;;;;;3.15;100.00;100604.28;6008664;29;20049;-92
2022/04/12 01:28:25;;;;;;;16.55;11.38;;;;;;;3.07;100.00;100607.19;6012414;29;20050;-92
2022/04/12 01:31:27;;;;;;;15.85;10.90;;;;;;;3.02;100.00;100604.03;6015129;29;20046;-92
2022/04/12 01:34:29;;;;;;;15.50;10.40;;;;;;;2.98;100.00;100611.03;6013036;29;20370;-92
2022/04/12 01:37:31;;;;;;;13.68;10.93;;;;;;;2.96;100.00;100602.59;6007024;29;20055;-91
2022/04/12 01:40:33;;;;;;;14.52;10.57;;;;;;;2.96;100.00;100599.19;6009239;29;20045;-91
2022/04/12 01:43:35;;;;;;;15.10;10.85;;;;;;;2.94;100.00;100599.25;6014693;29;20498;-92
2022/04/12 01:46:37;;;;;;;17.80;11.63;;;;;;;2.94;100.00;100603.56;6015678;29;20120;-91
2022/04/12 01:49:39;;;;;;;16.73;11.77;;;;;;;2.98;100.00;100599.94;6018818;29;20041;-92
2022/04/12 01:52:41;;;;;;;16.30;10.60;;;;;;;3.02;100.00;100601.47;6015498;29;20038;-92
2022/04/12 01:55:43;;;;;;;15.70;11.48;;;;;;;3.00;100.00;100598.97;6014924;29;20056;-91
2022/04/12 01:58:44;;;;;;;17.33;10.93;;;;;;;2.99;100.00;100599.06;6021484;29;20053;-92
2022/04/12 02:01:46;;;;;;;16.00;10.85;;;;;;;2.99;100.00;100593.94;6012429;29;20049;-92
2022/04/12 02:04:48;;;;;;;17.85;11.57;;;;;;;2.97;100.00;100595.75;6021415;29;20522;-92
2022/04/12 02:07:50;;;;;;;15.77;10.85;;;;;;;2.95;100.00;100588.13;6019278;29;20064;-92
2022/04/12 02:10:52;;;;;;;17.00;11.18;;;;;;;2.96;100.00;100583.88;6016744;29;20077;-92
2022/04/12 02:13:54;;;;;;;17.52;12.15;;;;;;;2.96;100.00;100589.81;6019251;29;20215;-91
2022/04/12 02:16:56;;;;;;;15.27;10.68;;;;;;;2.95;100.00;100571.97;6025333;29;20061;-92
2022/04/12 02:19:58;;;;;;;15.57;11.52;;;;;;;2.93;100.00;100572.06;6018037;29;20080;-91
2022/04/12 02:23:00;;;;;;;16.42;11.60;;;;;;;2.89;100.00;100565.41;6011924;29;20369;-92
2022/04/12 02:26:02;;;;;;;18.73;11.70;;;;;;;2.90;100.00;100567.06;6014909;29;20181;-92
2022/04/12 02:29:03;;;;;;;18.77;11.43;;;;;;;2.91;100.00;100560.25;6013333;29;20049;-91
2022/04/12 02:32:09;;;;;;;17.98;11.27;;;;;;;2.87;100.00;100556.16;6022570;29;20057;-91
2022/04/12 02:35:12;;;;;;;17.67;11.63;;;;;;;2.82;100.00;100545.31;6010357;29;20042;-91
2022/04/12 02:38:13;;;;;;;17.52;11.77;;;;;;;2.75;100.00;100545.59;6020007;29;20057;-91
2022/04/12 02:41:15;;;;;;;19.35;12.02;;;;;;;2.71;100.00;100536.44;6006004;29;20522;-91
2022/04/12 02:44:17;;;;;;;19.08;12.30;;;;;;;2.71;100.00;100540.72;6023515;29;20778;-92
2022/04/12 02:47:23;;;;;;;20.27;12.45;;;;;;;2.71;100.00;100541.53;6021369;29;20072;-92
2022/04/12 02:50:27;;;;;;;20.55;11.70;;;;;;;2.69;100.00;100538.22;6022729;29;20046;-91
2022/04/12 02:53:29;;;;;;;17.95;11.55;;;;;;;2.69;100.00;100537.41;6016015;29;20492;-91
2022/04/12 02:56:31;;;;;;;17.25;11.88;;;;;;;2.72;100.00;100534.69;6016809;29;20054;-91
2022/04/12 02:59:33;;;;;;;18.90;11.63;;;;;;;2.73;100.00;100542.31;6009040;29;20050;-92
2022/04/12 03:02:35;;;;;;;20.90;12.50;;;;;;;2.74;100.00;100538.84;6010834;29;20049;-91
2022/04/12 03:05:38;;;;;;;19.05;11.82;;;;;;;2.79;100.00;100547.13;6012213;29;20048;-91
2022/04/12 03:08:40;;;;;;;19.02;12.07;;;;;;;2.81;100.00;100541.94;6022023;29;20357;-91
2022/04/12 03:11:42;;;;;;;17.73;11.32;;;;;;;2.85;100.00;100540.06;6003706;29;20073;-91
2022/04/12 03:14:44;;;;;;;21.33;12.50;;;;;;;2.91;100.00;100539.78;6022672;29;20049;-91
2022/04/12 03:17:50;;;;;;;18.55;11.80;;;;;;;2.95;100.00;100542.09;6011691;29;20045;-92
2022/04/12 03:20:51;;;;;;;17.05;11.68;;;;;;;3.00;100.00;100539.34;6019932;29;20050;-92
2022/04/12 03:23:53;;;;;;;16.35;10.98;;;;;;;3.06;100.00;100544.19;6018383;29;20046;-92
2022/04/12 03:26:55;;;;;;;18.58;11.32;;;;;;;3.12;100.00;100545.59;6007644;29;20045;-92
2022/04/12 03:29:57;;;;;;;17.25;12.00;;;;;;;3.12;100.00;100538.75;6002009;29;20433;-92
2022/04/12 03:32:59;;;;;;;19.42;10.80;;;;;;;3.15;100.00;100533.47;6017511;29;20101;-91
2022/04/12 03:36:01;;;;;;;17.30;10.82;;;;;;;3.16;100.00;100545.38;6016564;29;20050;-91
2022/04/12 03:39:04;;;;;;;17.38;11.18;;;;;;;3.21;100.00;100532.38;6007475;29;20834;-92
2022/04/12 03:42:11;;;;;;;21.40;12.23;;;;;;;3.23;100.00;100521.19;6015667;29;20904;-92
2022/04/12 03:45:12;;;;;;;17.50;11.88;;;;;;;3.29;100.00;100520.03;6009108;29;20054;-92
2022/04/12 03:48:14;;;;;;;19.27;12.10;;;;;;;3.34;100.00;100530.88;6004096;29;20083;-92
2022/04/12 03:51:16;;;;;;;18.35;10.77;;;;;;;3.37;100.00;100528.16;6008561;29;20125;-91
2022/04/12 03:54:18;;;;;;;18.85;11.90;;;;;;;3.37;100.00;100540.13;6010762;29;20765;-91
2022/04/12 03:57:20;;;;;;;19.38;12.18;;;;;;;3.35;100.00;100529.13;6020531;29;20041;-91
2022/04/12 04:00:22;;;;;;;17.48;11.23;;;;;;;3.32;100.00;100530.13;6003870;29;20060;-92
2022/04/12 04:03:23;;;;;;;18.80;11.95;;;;;;;3.28;100.00;100531.19;6015538;29;20050;-92
2022/04/12 04:06:25;;;;;;;18.63;12.15;;;;;;;3.22;100.00;100531.47;6016430;29;20041;-91
2022/04/12 04:09:27;;;;;;;18.90;11.55;;;;;;;3.17;100.00;100535.97;6015356;29;20093;-92
2022/04/12 04:12:29;;;;;;;18.40;11.77;;;;;;;3.11;100.00;100533.72;6015538;29;20248;-91
2022/04/12 04:15:31;;;;;;;19.13;12.38;;;;;;;3.02;100.00;100535.81;6013447;29;20438;-91
2022/04/12 04:18:34;;;;;;;18.85;12.23;;;;;;;2.94;100.00;100550.69;6013743;29;20049;-91
2022/04/12 04:21:37;;;;;;;19.77;11.88;;;;;;;2.85;100.00;100545.16;6003484;29;20089;-92
2022/04/12 04:24:39;;;;;;;20.15;12.48;;;;;;;2.82;100.00;100551.25;6019612;29;20060;-91
2022/04/12 04:27:41;;;;;;;19.48;11.93;;;;;;;2.76;100.00;100547.25;6015658;29;20041;-92
2022/04/12 04:30:44;;;;;;;18.13;12.32;;;;;;;2.70;100.00;100547.53;6017286;29;20053;-91
2022/04/12 04:33:46;;;;;;;18.60;12.30;;;;;;;2.70;100.00;100544.16;6000614;29;20045;-91
2022/04/12 04:36:48;;;;;;;20.40;12.68;;;;;;;2.71;100.00;100544.09;6020101;29;20045;-92
2022/04/12 04:39:50;;;;;;;22.98;13.30;;;;;;;2.72;100.00;100537.25;6012737;29;20057;-92
2022/04/12 04:42:52;;;;;;;25.75;12.98;;;;;;;2.74;100.00;100548.22;6009216;29;20054;-91
2022/04/12 04:45:54;;;;;;;19.35;12.88;;;;;;;2.78;100.00;100553.13;6012415;29;20484;-91
2022/04/12 04:48:56;;;;;;;21.27;12.90;;;;;;;2.78;100.00;100559.94;6011176;29;20088;-92
2022/04/12 04:51:58;;;;;;;20.98;13.35;;;;;;;2.78;100.00;100565.91;6016540;29;20057;-91
2022/04/12 04:55:00;;;;;;;20.35;12.80;;;;;;;2.76;100.00;100566.88;6016123;29;20049;-92
2022/04/12 04:58:03;;;;;;;19.70;12.77;;;;;;;2.74;100.00;100561.00;6015644;29;20563;-91
2022/04/12 05:01:05;;;;;;;19.65;12.52;;;;;;;2.74;100.00;100558.47;6007257;29;20777;-92
2022/04/12 05:04:07;;;;;;;20.35;11.48;;;;;;;2.78;100.00;100565.91;6017666;29;20061;-91
2022/04/12 05:07:09;;;;;;;19.30;10.95;;;;;;;2.85;100.00;100568.19;6013459;29;20144;-92
2022/04/12 05:10:16;;;;;;;21.70;11.48;;;;;;;2.93;100.00;100572.06;6011955;29;20061;-92
2022/04/12 05:13:18;;;;;;;21.13;11.63;;;;;;;3.01;100.00;100571.69;6006712;29;20042;-92
2022/04/12 05:16:20;;;;;;;19.05;10.93;;;;;;;3.09;100.00;100563.66;6016563;29;20285;-92
2022/04/12 05:19:22;;;;;;;18.77;11.70;;;;;;;3.17;100.00;100569.22;6015821;29;20669;-91
2022/04/12 05:22:26;;;;;;;18.83;11.20;;;;;;;3.25;100.00;100564.56;6014251;29;20041;-92
2022/04/12 05:25:28;;;;;;;18.15;10.65;;;;;;;3.35;100.00;100552.97;6016822;29;20034;-91
2022/04/12 05:28:29;;;;;;;15.25;10.43;;;;;;;3.43;100.00;100550.91;6016170;29;20722;-92
2022/04/12 05:31:31;;;;;;;16.38;10.45;;;;;;;3.53;100.00;100547.88;6017241;29;20038;-92
2022/04/12 05:34:34;;;;;;;19.45;10.88;;;;;;;3.69;100.00;100547.97;6012277;29;20046;-92
2022/04/12 05:37:52;;;;;;;15.32;9.38;;;;;;;3.81;100.00;100547.34;5993636;29;20569;-91
2022/04/12 05:40:54;;;;;;;16.67;10.02;;;;;;;3.91;100.00;100545.16;6014242;29;20121;-92
2022/04/12 05:43:56;;;;;;;16.58;9.88;;;;;;;3.95;100.00;100552.59;6009726;29;20065;-92
2022/04/12 05:47:00;;;;;;;14.93;9.30;;;;;;;4.00;100.00;100549.78;6013738;29;20125;-92
2022/04/12 05:50:02;;;;;;;16.10;9.32;;;;;;;4.09;100.00;100557.81;6013760;29;20054;-92
2022/04/12 05:53:04;;;;;;;13.75;9.68;;;;;;;4.17;100.00;100557.41;6015719;29;20053;-92
2022/04/12 05:56:06;;;;;;;14.82;9.52;;;;;;;4.24;100.00;100552.81;6014941;29;20284;-92
2022/04/12 05:59:08;;;;;;;13.35;9.10;;;;;;;4.28;100.00;100556.88;6016687;29;20046;-92
2022/04/12 06:02:10;;;;;;;15.82;9.32;;;;;;;4.36;100.00;100547.06;6007567;29;20136;-92
2022/04/12 06:05:13;;;;;;;15.77;9.65;;;;;;;4.47;100.00;100549.88;6015560;29;20128;-92
2022/04/12 06:08:15;;;;;;;16.38;9.43;;;;;;;4.58;100.00;100549.31;6015714;29;20563;-92
2022/04/12 06:11:17;;;;;;;15.70;8.52;;;;;;;4.72;100.00;100556.22;6008411;29;20053;-91
2022/04/12 06:14:19;;;;;;;14.15;8.73;;;;;;;4.89;100.00;100556.16;6013663;29;20041;-92
2022/04/12 06:17:22;;;;;;;11.50;7.78;;;;;;;5.05;100.00;100558.72;6016856;29;21061;-92
2022/04/12 06:20:24;;;;;;;12.40;8.35;;;;;;;5.29;100.00;100560.81;6019823;29;20053;-92
2022/04/12 06:23:26;;;;;;;13.80;8.23;;;;;;;5.54;100.00;100555.09;6013773;29;20045;-92
2022/04/12 06:26:28;;;;;;;12.85;7.60;;;;;;;5.77;100.00;100551.22;6012370;29;20038;-92
2022/04/12 06:29:30;;;;;;;15.10;8.82;;;;;;;6.00;100.00;100547.31;6016919;29;20485;-92
2022/04/12 06:32:33;;;;;;;12.73;7.97;;;;;;;6.26;100.00;100553.47;6015054;29;20044;-91
2022/04/12 06:35:35;;;;;;;15.07;7.78;;;;;;;6.44;100.00;100560.06;6009421;29;20045;-92
2022/04/12 06:38:37;;;;;;;10.88;7.05;;;;;;;6.62;100.00;100552.13;6021841;29;20572;-92
2022/04/12 06:41:39;;;;;;;12.43;7.20;;;;;;;6.77;100.00;100560.66;6006872;29;20191;-92
2022/04/12 06:44:41;;;;;;;9.82;7.32;;;;;;;6.88;100.00;100560.78;6007070;29;20115;-91
2022/04/12 06:47:44;;;;;;;9.35;7.22;;;;;;;7.01;100.00;100564.25;6008923;29;20095;-91
2022/04/12 06:50:45;;;;;;;10.52;6.80;;;;;;;7.09;100.00;100561.19;6019107;29;20113;-89
2022/04/12 06:53:50;;;;;;;11.20;7.28;;;;;;;7.20;100.00;100565.63;6019111;29;20132;-89
2022/04/12 06:56:55;;;;;;;8.73;6.32;;;;;;;7.33;100.00;100571.66;6024136;29;20203;-89
2022/04/12 06:59:57;;;;;;;11.68;6.82;;;;;;;7.46;100.00;100575.09;6024231;29;20136;-89
2022/04/12 07:02:59;;;;;;;14.82;6.90;;;;;;;7.60;100.00;100579.31;6015714;29;20550;-89
2022/04/12 07:06:01;;;;;;;11.07;6.95;;;;;;;7.69;100.00;100573.56;6013230;29;20105;-89
2022/04/12 07:09:05;;;;;;;10.30;6.90;;;;;;;7.76;100.00;100579.16;6010539;29;20032;-89
2022/04/12 07:12:07;;;;;;;9.77;6.80;;;;;;;7.85;100.00;100572.53;6014688;29;20470;-89
2022/04/12 07:15:10;;;;;;;8.40;6.70;;;;;;;7.87;100.00;100576.66;6017371;29;20056;-89
2022/04/12 07:18:12;;;;;;;9.93;6.80;;;;;;;7.78;100.00;100574.72;6019095;29;20053;-89
2022/04/12 07:21:21;;;;;;;9.50;6.22;;;;;;;7.65;100.00;100573.88;6014802;29;20057;-89
2022/04/12 07:24:22;;;;;;;9.18;6.25;;;;;;;7.53;100.00;100565.22;6017636;29;20049;-89
2022/04/12 07:27:24;;;;;;;11.27;6.68;;;;;;;7.42;100.00;100563.31;6021261;29;20412;-89
2022/04/12 07:30:27;;;;;;;9.65;6.60;;;;;;;7.31;100.00;100576.91;6011870;29;20260;-89
2022/04/12 07:33:49;;;;;;;8.98;6.57;;;;;;;7.29;100.00;100580.50;6013780;29;20373;-89
2022/04/12 07:36:53;;;;;;;11.38;6.93;;;;;;;7.36;100.00;100586.09;6015804;29;20050;-91
2022/04/12 07:39:56;;;;;;;12.13;7.30;;;;;;;7.45;100.00;100580.31;6017616;29;20735;-91
2022/04/12 07:42:57;;;;;;;10.45;6.60;;;;;;;7.53;100.00;100584.06;6002367;29;20171;-92
2022/04/12 07:45:59;;;;;;;10.38;7.32;;;;;;;7.63;100.00;100592.03;6020126;29;20263;-92
2022/04/12 07:49:21;;;;;;;10.52;6.85;;;;;;;7.80;100.00;100596.06;6009763;29;20060;-92
2022/04/12 07:52:23;;;;;;;11.82;7.53;;;;;;;7.97;100.00;100593.19;6012494;29;20049;-92
2022/04/12 07:55:26;;;;;;;9.55;6.55;;;;;;;8.10;100.00;100584.59;6005844;29;20412;-92
2022/04/12 07:58:28;;;;;;;9.07;6.32;;;;;;;8.19;100.00;100582.22;6011957;29;20142;-92
2022/04/12 08:01:32;;;;;;;11.05;6.75;;;;;;;8.41;100.00;100591.13;6013728;29;20049;-92
2022/04/12 08:04:34;;;;;;;9.35;6.22;;;;;;;8.57;100.00;100590.88;6012719;29;20244;-91
2022/04/12 08:07:37;;;;;;;9.90;6.65;;;;;;;8.75;100.00;100584.44;6009782;29;20515;-91
2022/04/12 08:10:39;;;;;;;9.57;6.45;;;;;;;8.90;100.00;100576.56;6011566;29;20046;-92
2022/04/12 08:13:42;;;;;;;9.82;6.63;;;;;;;9.02;100.00;100576.50;6015847;29;20052;-92
2022/04/12 08:16:45;;;;;;;9.18;6.65;;;;;;;9.09;100.00;100579.44;6010917;29;20046;-92
2022/04/12 08:19:48;;;;;;;10.10;6.35;;;;;;;9.17;100.00;100591.84;6014850;29;20046;-91
2022/04/12 08:22:52;;;;;;;9.20;6.57;;;;;;;9.31;100.00;100601.97;6018447;29;20117;-92
2022/04/12 08:25:54;;;;;;;10.98;7.07;;;;;;;9.49;100.00;100603.22;6011509;29;20069;-93
2022/04/12 08:28:57;;;;;;;9.05;5.90;;;;;;;9.63;100.00;100591.03;6015684;29;20064;-93
2022/04/12 08:31:59;;;;;;;8.90;6.18;;;;;;;9.76;99.53;100578.84;6004819;29;21627;-92
2022/04/12 08:35:03;;;;;;;10.98;6.28;;;;;;;9.90;98.93;100573.47;6017236;29;20049;-92
2022/04/12 08:38:05;;;;;;;6.47;5.63;;;;;;;10.04;98.40;100567.25;6016172;29;20049;-93
2022/04/12 08:41:07;;;;;;;9.27;6.38;;;;;;;10.21;99.69;100567.72;6013661;29;20049;-93
2022/04/12 08:44:10;;;;;;;6.93;5.50;;;;;;;10.47;95.08;100565.75;6016697;29;20041;-91
2022/04/12 08:47:18;;;;;;;7.95;5.68;;;;;;;10.73;97.10;100563.69;6015976;29;20064;-93
2022/04/12 08:50:23;;;;;;;9.05;5.75;;;;;;;10.99;91.81;100556.44;6009141;29;20091;-93
2022/04/12 08:53:26;;;;;;;6.93;5.35;;;;;;;11.23;92.16;100553.66;6014177;29;20258;-94
2022/04/12 08:56:29;;;;;;;7.85;5.68;;;;;;;11.48;91.60;100555.06;6010671;29;20132;-91
2022/04/12 08:59:31;;;;;;;9.63;5.72;;;;;;;11.78;88.54;100550.88;6015839;29;20397;-91
2022/04/12 09:02:33;;;;;;;8.98;5.43;;;;;;;12.04;88.50;100551.28;6009567;29;20056;-92
2022/04/12 09:05:35;;;;;;;9.70;5.78;;;;;;;12.13;83.36;100541.91;6013012;29;20187;-92
2022/04/12 09:08:38;;;;;;;9.60;5.78;;;;;;;12.14;82.97;100552.16;6008895;29;20660;-91
2022/04/12 09:11:56;;;;;;;12.25;5.90;;;;;;;12.16;84.33;100562.41;6015257;29;20038;-90
2022/04/12 09:14:59;;;;;;;11.43;5.93;;;;;;;12.16;86.22;100560.63;6010595;29;20050;-91
2022/04/12 09:18:01;;;;;;;11.82;6.35;;;;;;;12.16;83.86;100565.00;6013558;29;21392;-91
2022/04/12 09:21:19;;;;;;;10.10;6.03;;;;;;;12.15;82.99;100561.59;6004382;29;20049;-91
2022/04/12 09:24:23;;;;;;;9.98;6.15;;;;;;;12.25;81.66;100556.44;6008932;29;20041;-88
2022/04/12 09:27:30;;;;;;;10.43;5.47;;;;;;;12.39;80.39;100547.47;6007907;29;20060;-89
2022/04/12 09:30:39;;;;;;;10.30;6.10;;;;;;;12.55;78.95;100547.78;6006433;29;20068;-91
2022/04/12 09:33:42;;;;;;;9.48;6.22;;;;;;;12.75;80.75;100548.63;6006837;29;20080;-90
2022/04/12 09:36:45;;;;;;;8.18;5.80;;;;;;;12.95;80.00;100538.28;6006931;29;20045;-91
2022/04/12 09:39:58;;;;;;;8.95;6.18;;;;;;;13.15;76.76;100538.13;6009039;29;20050;-91
2022/04/12 09:43:05;;;;;;;10.57;6.68;;;;;;;13.27;74.43;100538.84;6002905;29;20050;-89
2022/04/12 09:46:07;;;;;;;8.63;6.18;;;;;;;13.27;73.65;100544.03;6003990;29;20042;-89
2022/04/12 09:49:10;;;;;;;7.93;5.80;;;;;;;13.27;75.93;100538.03;6005417;29;20729;-89
2022/04/12 09:52:13;;;;;;;9.82;6.22;;;;;;;13.20;75.65;100532.50;6011945;29;20474;-89
2022/04/12 09:55:31;;;;;;;10.32;5.97;;;;;;;13.30;69.20;100530.75;6006637;29;20049;-90
2022/04/12 09:58:54;;;;;;;7.35;5.25;;;;;;;13.34;69.42;100521.72;5998737;29;20544;-90
2022/04/12 10:01:56;;;;;;;8.82;5.93;;;;;;;13.34;73.63;100519.13;6011462;29;20033;-90
2022/04/12 10:05:03;;;;;;;9.35;6.30;;;;;;;13.39;73.00;100505.72;6012628;29;20073;-90
2022/04/12 10:08:09;;;;;;;8.48;6.03;;;;;;;13.45;72.10;100507.75;6010195;29;20040;-90
2022/04/12 10:11:13;;;;;;;8.38;5.85;;;;;;;13.46;72.77;100506.78;6012509;29;20052;-90
2022/04/12 10:14:15;;;;;;;7.38;5.82;;;;;;;13.47;69.84;100487.63;6009878;29;20038;-90
2022/04/12 10:17:18;;;;;;;9.02;6.00;;;;;;;13.51;70.85;100475.97;6007730;29;20046;-90
2022/04/12 10:20:21;;;;;;;9.75;5.65;;;;;;;13.55;68.87;100464.31;6006323;29;20515;-90
2022/04/12 10:23:27;;;;;;;12.00;6.50;;;;;;;13.70;69.85;100469.88;5992413;29;20144;-90
2022/04/12 10:26:30;;;;;;;9.90;6.25;;;;;;;13.83;67.86;100466.94;6003927;29;20087;-90
2022/04/12 10:29:32;;;;;;;8.90;6.22;;;;;;;13.96;67.35;100464.84;6024427;29;20189;-90
2022/04/12 10:32:37;;;;;;;9.15;6.68;;;;;;;14.19;68.59;100467.06;6017536;29;20056;-89
2022/04/12 10:35:46;;;;;;;8.60;6.32;;;;;;;14.40;67.24;100475.41;6021360;29;20045;-90
2022/04/12 10:38:51;;;;;;;10.02;6.20;;;;;;;14.50;69.76;100477.13;6007938;29;20048;-90
2022/04/12 10:41:56;;;;;;;9.45;5.93;;;;;;;14.64;67.66;100474.88;6013628;29;20045;-90
2022/04/12 10:45:01;;;;;;;8.23;6.18;;;;;;;14.79;64.61;100469.13;6009505;29;20041;-90
2022/04/12 10:48:04;;;;;;;11.60;7.43;;;;;;;14.90;66.12;100466.28;6016370;29;20045;-90
2022/04/12 10:51:06;;;;;;;10.30;6.40;;;;;;;15.03;63.48;100463.28;6021791;29;20056;-90
2022/04/12 10:54:30;;;;;;;10.38;5.90;;;;;;;15.23;64.74;100464.75;6019035;29;20050;-90
2022/04/12 10:57:33;;;;;;;9.45;6.07;;;;;;;15.35;60.72;100460.06;6016404;29;20044;-90
2022/04/12 11:00:36;;;;;;;10.55;6.45;;;;;;;15.43;60.66;100451.50;6014443;29;20637;-90
2022/04/12 11:03:40;;;;;;;9.27;7.03;;;;;;;15.67;59.47;100464.66;6019432;29;20053;-91
2022/04/12 11:06:46;;;;;;;10.73;6.32;;;;;;;15.76;59.44;100454.31;6018599;29;20087;-91
2022/04/12 11:10:08;;;;;;;9.65;6.25;;;;;;;15.96;58.19;100452.25;6014417;29;20053;-93
2022/04/12 11:13:11;;;;;;;8.63;5.90;;;;;;;16.08;57.77;100456.22;6001759;29;20042;-92
2022/04/12 11:16:18;;;;;;;9.68;6.95;;;;;;;16.22;57.51;100460.00;6014627;29;20045;-92
2022/04/12 11:19:25;;;;;;;9.48;6.65;;;;;;;16.41;56.67;100456.28;6022536;29;20492;-93
2022/04/12 11:22:46;;;;;;;9.18;6.45;;;;;;;16.47;55.89;100460.84;5999124;29;20718;-93
2022/04/12 11:25:55;;;;;;;10.25;6.60;;;;;;;16.60;55.24;100452.56;6026763;29;20049;-93
2022/04/12 11:29:00;;;;;;;8.45;5.88;;;;;;;16.59;56.46;100446.50;6021130;29;20041;-93
2022/04/12 11:32:06;;;;;;;8.25;6.43;;;;;;;16.71;55.90;100439.16;6008669;29;20049;-93
2022/04/12 11:35:22;;;;;;;8.63;6.63;;;;;;;16.81;53.70;100442.47;6011080;29;20463;-93
2022/04/12 11:38:28;;;;;;;9.23;6.22;;;;;;;16.85;53.47;100440.34;6009501;29;20373;-94
2022/04/12 11:41:40;;;;;;;11.65;6.60;;;;;;;16.96;51.36;100437.38;6010716;29;20503;-95
2022/04/12 11:44:55;;;;;;;8.45;6.57;;;;;;;17.08;51.53;100438.69;6015805;29;20049;-93
2022/04/12 11:47:58;;;;;;;9.40;6.60;;;;;;;17.09;51.14;100442.94;6016846;29;20464;-94
2022/04/12 11:51:08;;;;;;;8.23;6.03;;;;;;;17.06;51.51;100435.41;6014857;29;20057;-94
2022/04/12 11:54:25;;;;;;;11.68;7.28;;;;;;;17.14;52.83;100437.19;6008457;29;20046;-95
2022/04/12 11:57:28;;;;;;;9.23;7.25;;;;;;;17.22;54.31;100437.19;6021428;29;20052;-94
2022/04/12 12:00:30;;;;;;;9.25;7.63;;;;;;;17.20;52.50;100432.13;6006557;29;20101;-95
2022/04/12 12:03:40;;;;;;;9.95;7.78;;;;;;;17.17;52.54;100426.44;6022128;29;20144;-94
2022/04/12 12:07:05;;;;;;;12.00;8.52;;;;;;;17.30;53.61;100431.13;6016139;29;20523;-95
2022/04/12 12:10:23;;;;;;;10.13;8.30;;;;;;;17.30;53.42;100431.94;6018682;29;20080;-95
2022/04/12 12:14:01;;;;;;;11.20;7.72;;;;;;;17.28;53.59;100431.28;6019154;29;20080;-95
2022/04/12 12:17:18;;;;;;;12.50;8.13;;;;;;;17.32;55.64;100422.13;6019268;29;20512;-94
2022/04/12 12:20:40;;;;;;;11.10;7.93;;;;;;;17.30;55.01;100421.47;6010868;29;20724;-95
2022/04/12 12:23:50;;;;;;;16.08;8.10;;;;;;;17.28;55.97;100414.78;6017347;29;20534;-95
2022/04/12 12:26:58;;;;;;;10.40;8.48;;;;;;;17.45;54.16;100408.50;6013536;29;20445;-94
2022/04/12 12:30:16;;;;;;;12.35;8.65;;;;;;;17.60;56.52;100417.28;6009514;29;20046;-95
2022/04/12 12:33:23;;;;;;;13.13;8.68;;;;;;;17.89;54.76;100420.28;6012246;29;20388;-95
2022/04/12 12:36:35;;;;;;;10.68;7.93;;;;;;;18.11;53.33;100416.09;6012695;29;20049;-95
2022/04/12 12:39:57;;;;;;;11.63;8.68;;;;;;;18.22;52.67;100411.28;6018734;29;20073;-94
2022/04/12 12:43:20;;;;;;;11.90;9.13;;;;;;;18.33;50.55;100407.41;5993200;29;20042;-95
2022/04/12 12:46:34;;;;;;;12.70;9.30;;;;;;;18.46;52.91;100393.75;6027132;29;20595;-95
2022/04/12 12:49:42;;;;;;;13.65;8.60;;;;;;;18.50;50.48;100398.44;6039544;29;20129;-96
2022/04/12 12:53:06;;;;;;;11.93;8.38;;;;;;;18.62;51.64;100400.66;6032192;29;20045;-96
2022/04/12 12:56:23;;;;;;;11.95;8.90;;;;;;;18.64;49.17;100402.09;6028359;29;20045;-95
2022/04/12 12:59:57;;;;;;;12.93;8.98;;;;;;;18.80;52.73;100400.38;6036420;29;20060;-96
2022/04/12 13:03:14;;;;;;;14.93;9.63;;;;;;;18.88;49.71;100401.13;6030601;29;20536;-96
2022/04/12 13:06:24;;;;;;;11.10;8.85;;;;;;;19.01;48.43;100390.00;6026913;29;20054;-96
2022/04/12 13:09:55;;;;;;;12.65;9.18;;;;;;;19.08;48.67;100382.22;6025888;29;20046;-96
2022/04/12 13:13:21;;;;;;;11.73;8.60;;;;;;;19.18;46.93;100384.56;5972003;29;20057;-96
2022/04/12 13:16:59;;;;;;;9.80;8.25;;;;;;;19.40;48.84;100388.91;5881943;30;20067;-96
2022/04/12 13:20:32;;;;;;;;;;;;;;;19.46;47.19;100390.81;5901038;30;20159;-96
2022/04/12 13:23:45;;;;;;;9.57;7.68;;;;;;;19.64;47.76;100387.78;5917674;29;19932;-96
2022/04/12 13:26:58;;;;;;;11.27;8.25;;;;;;;19.82;44.78;100386.63;5946500;29;20047;-96
2022/04/12 13:30:27;;;;;;;11.25;7.47;;;;;;;19.80;45.75;100384.19;5958903;29;20126;-96
2022/04/12 13:33:52;;;;;;;9.85;8.25;;;;;;;19.79;45.78;100375.47;5962831;29;20091;-96
2022/04/12 13:37:08;;;;;;;9.35;7.30;;;;;;;19.81;45.32;100370.03;5978014;29;20462;-96
2022/04/12 13:40:30;;;;;;;10.88;7.60;;;;;;;19.85;44.62;100373.09;5949955;29;20062;-96
2022/04/12 13:44:11;;;;;;;11.75;7.57;;;;;;;19.94;44.12;100364.91;5964805;29;20062;-96
2022/04/12 13:47:49;;;;;;;10.25;7.38;;;;;;;20.07;42.67;100360.81;5953633;29;20156;-96
2022/04/12 13:51:07;;;;;;;;;;;;;;;;;;;;;
2022/04/12 13:54:25;;;;;;;8.20;6.80;;;;;;;20.21;43.78;100363.38;5960017;29;20050;-96
2022/04/12 13:57:44;;;;;;;;;;;;;;;;;;;;;
2022/04/12 14:01:07;;;;;;;8.27;6.68;;;;;;;20.09;43.49;100353.56;5966547;29;20050;-95
2022/04/12 14:04:23;;;;;;;8.70;6.50;;;;;;;20.28;42.47;100345.03;5955372;29;20059;-95
2022/04/12 14:07:29;;;;;;;7.88;5.97;;;;;;;20.63;42.81;100339.88;5946783;29;20058;-95
2022/04/12 14:10:45;;;;;;;7.22;5.95;;;;;;;20.98;42.56;100330.19;5974573;29;20057;-96
2022/04/12 14:13:52;;;;;;;8.48;5.93;;;;;;;21.08;41.65;100333.25;5941907;29;20426;-96
2022/04/12 14:16:58;;;;;;;6.18;5.57;;;;;;;21.09;40.54;100339.34;5962680;29;20053;-95
2022/04/12 14:20:01;;;;;;;7.65;5.60;;;;;;;21.07;40.83;100318.50;5976571;29;20054;-95
2022/04/12 14:23:17;;;;;;;7.03;5.65;;;;;;;21.08;38.52;100314.84;5967479;29;20055;-95